Time;durP1;ratioP1;P1;durP2;ratioP2;P2;SDS_P1;SDS_P2;PMS_P1;PMS_P2;Temp;Humidity;BMP_temperature;BMP_pressure;BME280_temperature;BME280_humidity;BME280_pressure;Samples;Min_cycle;Max_cycle;Signal;HPM_P1;HPM_P2
2021/04/25 00:01:31;;;;;;;19.83;8.50;;;;;;;20.96;35.71;102782.19;5056030;28;20040;-71
2021/04/25 00:03:56;;;;;;;15.95;7.38;;;;;;;20.88;35.92;102780.28;5062574;28;20075;-70
2021/04/25 00:06:22;;;;;;;20.00;8.57;;;;;;;20.87;36.13;102778.66;5072452;28;20025;-72
2021/04/25 00:08:48;;;;;;;19.45;7.80;;;;;;;21.01;35.90;102787.56;5072467;28;20382;-70
2021/04/25 00:11:13;;;;;;;14.60;6.93;;;;;;;21.02;35.93;102785.59;5063139;28;20703;-71
2021/04/25 00:13:39;;;;;;;16.05;8.00;;;;;;;20.86;36.07;102787.31;5054212;28;20031;-71
2021/04/25 00:16:05;;;;;;;14.60;8.43;;;;;;;20.83;36.13;102790.75;5056106;28;20051;-71
2021/04/25 00:18:34;;;;;;;19.90;7.85;;;;;;;20.86;36.00;102799.25;5062850;28;20115;-69
2021/04/25 00:20:59;;;;;;;15.48;8.38;;;;;;;20.46;36.81;102787.59;5072598;28;20169;-70
2021/04/25 00:23:25;;;;;;;16.50;7.88;;;;;;;20.44;36.78;102787.13;5072263;28;20053;-70
2021/04/25 00:25:51;;;;;;;17.73;8.07;;;;;;;20.69;36.47;102796.50;5072236;28;20146;-70
2021/04/25 00:28:16;;;;;;;17.00;8.95;;;;;;;20.80;36.04;102789.47;5072450;28;20032;-70
2021/04/25 00:30:42;;;;;;;16.52;8.00;;;;;;;20.84;35.96;102795.16;5071990;28;20037;-71
2021/04/25 00:33:07;;;;;;;20.17;7.38;;;;;;;20.72;36.17;102798.66;5072214;28;20028;-70
2021/04/25 00:35:35;;;;;;;20.23;8.27;;;;;;;20.71;36.24;102788.69;5072158;28;20434;-70
2021/04/25 00:38:00;;;;;;;17.90;8.13;;;;;;;20.48;36.58;102794.47;5072184;28;20056;-74
2021/04/25 00:40:26;;;;;;;20.45;9.13;;;;;;;20.58;36.52;102798.84;5072010;28;20431;-70
2021/04/25 00:42:51;;;;;;;20.92;8.85;;;;;;;20.50;36.64;102794.97;5072110;28;20031;-71
2021/04/25 00:45:18;;;;;;;27.55;9.65;;;;;;;20.69;36.31;102793.75;5072101;28;20020;-71
2021/04/25 00:47:46;;;;;;;28.27;11.00;;;;;;;20.68;36.35;102792.94;5071990;28;20059;-70
2021/04/25 00:50:15;;;;;;;22.08;11.10;;;;;;;20.63;36.39;102792.28;5072006;28;20352;-70
2021/04/25 00:52:45;;;;;;;18.63;9.95;;;;;;;20.41;37.14;102787.78;5072437;28;20394;-70
2021/04/25 00:55:13;;;;;;;22.23;11.55;;;;;;;20.58;36.86;102795.25;5076132;28;20020;-70
2021/04/25 00:57:40;;;;;;;26.48;12.38;;;;;;;20.58;36.89;102796.06;5075788;28;20047;-70
2021/04/25 01:00:07;;;;;;;31.92;12.95;;;;;;;20.70;37.08;102800.91;5075746;28;20466;-70
2021/04/25 01:02:34;;;;;;;33.10;13.07;;;;;;;20.88;36.95;102796.13;5057950;28;20457;-70
2021/04/25 01:05:00;;;;;;;29.33;13.30;;;;;;;21.04;36.80;102788.84;5075614;28;20074;-72
2021/04/25 01:07:26;;;;;;;31.77;14.40;;;;;;;20.62;38.02;102790.66;5075600;28;20048;-70
2021/04/25 01:09:51;;;;;;;32.65;15.45;;;;;;;20.58;38.62;102784.16;5075320;28;20031;-70
2021/04/25 01:12:17;;;;;;;29.05;14.10;;;;;;;20.46;39.08;102780.09;5075628;28;20470;-70
2021/04/25 01:14:43;;;;;;;36.30;14.95;;;;;;;20.37;39.69;102782.06;5075299;28;20029;-70
2021/04/25 01:17:08;;;;;;;36.10;14.90;;;;;;;20.74;39.15;102777.72;5075316;28;20094;-70
2021/04/25 01:19:34;;;;;;;30.25;14.25;;;;;;;20.74;39.29;102774.13;5075388;28;20062;-70
2021/04/25 01:22:00;;;;;;;41.70;16.52;;;;;;;20.47;40.08;102778.94;5075163;28;20036;-71
2021/04/25 01:24:25;;;;;;;29.27;15.93;;;;;;;20.57;39.96;102772.22;5075309;28;20111;-70
2021/04/25 01:26:51;;;;;;;27.80;14.20;;;;;;;20.54;40.29;102777.63;5074264;28;20536;-70
2021/04/25 01:29:16;;;;;;;33.65;15.57;;;;;;;20.83;39.45;102774.06;5075204;28;20509;-69
2021/04/25 01:31:42;;;;;;;29.20;14.75;;;;;;;20.81;39.42;102782.75;5063986;28;20131;-71
2021/04/25 01:34:08;;;;;;;29.27;15.38;;;;;;;20.88;39.26;102780.28;5057315;28;20032;-71
2021/04/25 01:36:33;;;;;;;28.65;15.05;;;;;;;20.83;39.31;102776.84;5057006;28;20025;-70
2021/04/25 01:38:59;;;;;;;33.38;14.55;;;;;;;20.87;38.91;102781.44;5058105;28;20024;-70
2021/04/25 01:41:25;;;;;;;30.38;14.93;;;;;;;20.89;38.81;102784.69;5057591;28;20031;-70
2021/04/25 01:43:50;;;;;;;26.77;15.48;;;;;;;20.79;38.71;102785.06;5058049;28;20198;-71
2021/04/25 01:46:16;;;;;;;36.55;16.77;;;;;;;20.62;39.20;102787.88;5057291;28;20099;-70
2021/04/25 01:48:43;;;;;;;31.65;15.68;;;;;;;20.63;39.14;102783.94;5056109;28;20508;-71
2021/04/25 01:51:10;;;;;;;34.42;16.58;;;;;;;20.78;38.86;102784.25;5056958;28;20131;-71
2021/04/25 01:53:35;;;;;;;32.42;17.73;;;;;;;20.75;38.82;102787.66;5056886;28;20028;-71
2021/04/25 01:56:03;;;;;;;34.30;16.98;;;;;;;21.06;38.15;102786.53;5057020;28;20706;-71
2021/04/25 01:58:28;;;;;;;27.38;16.33;;;;;;;20.95;38.21;102791.69;5055496;28;20447;-71
2021/04/25 02:00:54;;;;;;;28.42;16.00;;;;;;;20.99;37.98;102792.63;5056700;28;20029;-71
2021/04/25 02:03:20;;;;;;;33.47;17.63;;;;;;;20.99;37.96;102792.63;5057491;28;20033;-71
2021/04/25 02:05:46;;;;;;;31.95;16.08;;;;;;;21.02;37.83;102791.16;5056867;28;20025;-71
2021/04/25 02:08:13;;;;;;;28.25;16.33;;;;;;;21.04;37.75;102795.22;5057253;28;20032;-71
2021/04/25 02:10:40;;;;;;;31.23;16.15;;;;;;;21.03;37.76;102795.56;5057431;28;20028;-70
2021/04/25 02:13:07;;;;;;;35.83;16.90;;;;;;;21.00;37.93;102799.00;5057870;28;20044;-71
2021/04/25 02:15:33;;;;;;;34.85;17.83;;;;;;;21.01;37.72;102795.91;5055733;28;20036;-71
2021/04/25 02:17:59;;;;;;;35.72;17.30;;;;;;;20.97;38.14;102799.69;5054795;28;20503;-71
2021/04/25 02:20:25;;;;;;;34.15;18.63;;;;;;;20.98;38.03;102804.09;5056641;28;20067;-71
2021/04/25 02:22:52;;;;;;;28.23;15.35;;;;;;;20.84;38.12;102807.06;5058867;28;20082;-71
2021/04/25 02:25:19;;;;;;;27.35;15.77;;;;;;;20.57;38.56;102799.19;5056601;28;20085;-71
2021/04/25 02:27:45;;;;;;;28.27;16.50;;;;;;;20.42;38.50;102800.50;5073823;28;20028;-70
2021/04/25 02:30:15;;;;;;;32.95;18.52;;;;;;;20.42;38.30;102800.50;5055465;28;20884;-71
2021/04/25 02:32:41;;;;;;;;;;;;;;;20.18;38.91;102812.16;5057797;28;20419;-71
2021/04/25 02:35:09;;;;;;;39.67;19.25;;;;;;;20.17;38.84;102802.16;5056345;28;19989;-71
2021/04/25 02:37:35;;;;;;;35.45;17.80;;;;;;;20.15;39.06;102796.13;5056697;28;20025;-71
2021/04/25 02:40:03;;;;;;;35.40;18.88;;;;;;;20.32;38.94;102803.59;5056681;28;20154;-71
2021/04/25 02:42:28;;;;;;;39.80;19.27;;;;;;;20.31;38.96;102801.97;5057292;28;20039;-70
2021/04/25 02:44:54;;;;;;;37.70;19.38;;;;;;;20.27;38.98;102818.50;5056635;28;20037;-71
2021/04/25 02:47:20;;;;;;;37.60;19.63;;;;;;;20.27;38.98;102815.72;5056354;28;20029;-71
2021/04/25 02:49:45;;;;;;;30.83;18.08;;;;;;;20.11;39.71;102814.59;5057063;28;20645;-71
2021/04/25 02:52:11;;;;;;;31.98;17.45;;;;;;;20.10;39.95;102815.72;5055890;28;20569;-71
2021/04/25 02:54:36;;;;;;;34.60;19.05;;;;;;;20.15;39.84;102819.16;5058071;28;20519;-71
2021/04/25 02:57:02;;;;;;;30.45;17.17;;;;;;;20.71;38.46;102819.25;5056696;28;20029;-71
2021/04/25 02:59:28;;;;;;;37.33;18.77;;;;;;;20.70;38.67;102818.41;5055129;28;20029;-70
2021/04/25 03:01:53;;;;;;;39.15;19.15;;;;;;;20.74;38.38;102813.81;5056633;28;20043;-71
2021/04/25 03:04:19;;;;;;;42.50;20.52;;;;;;;20.60;38.84;102809.63;5057301;28;20028;-71
2021/04/25 03:06:44;;;;;;;30.73;18.95;;;;;;;20.60;38.79;102812.41;5055448;28;20035;-72
2021/04/25 03:09:10;;;;;;;37.20;18.98;;;;;;;20.75;38.46;102818.22;5056418;28;20029;-71
2021/04/25 03:11:35;;;;;;;33.35;18.95;;;;;;;20.71;38.53;102822.03;5055122;28;20033;-71
2021/04/25 03:14:01;;;;;;;36.40;19.27;;;;;;;20.52;38.89;102816.03;5055520;28;20122;-71
2021/04/25 03:16:26;;;;;;;35.35;19.20;;;;;;;20.64;38.49;102807.81;5070728;28;20020;-70
2021/04/25 03:18:52;;;;;;;31.55;18.48;;;;;;;20.49;38.86;102814.72;5071798;28;20029;-70
2021/04/25 03:21:18;;;;;;;38.00;20.15;;;;;;;20.56;38.69;102820.59;5073007;28;20028;-70
2021/04/25 03:23:43;;;;;;;30.80;17.83;;;;;;;20.41;38.77;102823.88;5073005;28;20028;-70
2021/04/25 03:26:09;;;;;;;31.85;19.25;;;;;;;20.48;38.69;102827.00;5072995;28;20028;-70
2021/04/25 03:28:35;;;;;;;28.83;17.30;;;;;;;20.54;38.51;102822.88;5072617;28;20103;-70
2021/04/25 03:31:02;;;;;;;33.28;19.63;;;;;;;20.62;38.34;102827.56;5072598;28;20109;-71
2021/04/25 03:33:28;;;;;;;36.53;17.52;;;;;;;20.44;38.78;102826.00;5072789;28;20021;-71
2021/04/25 03:35:53;;;;;;;37.05;18.55;;;;;;;20.29;39.15;102827.31;5072737;28;20032;-70
2021/04/25 03:38:19;;;;;;;33.17;18.05;;;;;;;20.55;38.40;102821.72;5072753;28;20109;-70
2021/04/25 03:40:45;;;;;;;35.63;18.13;;;;;;;20.27;38.87;102831.56;5071475;28;20447;-70
2021/04/25 03:43:11;;;;;;;34.13;17.63;;;;;;;20.44;38.59;102826.81;5071448;28;20031;-70
2021/04/25 03:45:36;;;;;;;33.28;18.30;;;;;;;20.36;38.66;102833.19;5072603;28;20025;-70
2021/04/25 03:48:02;;;;;;;30.15;18.63;;;;;;;20.40;38.46;102823.06;5072728;28;20029;-70
2021/04/25 03:50:28;;;;;;;38.47;17.80;;;;;;;20.44;38.37;102832.38;5071332;28;20024;-70
2021/04/25 03:52:54;;;;;;;37.50;17.85;;;;;;;20.32;38.62;102829.41;5071240;28;20380;-70
2021/04/25 03:55:21;;;;;;;29.75;17.98;;;;;;;20.46;38.19;102834.81;5072409;28;20428;-70
2021/04/25 03:57:48;;;;;;;30.65;18.17;;;;;;;20.38;38.33;102833.66;5071050;28;20475;-71
2021/04/25 04:00:16;;;;;;;37.70;17.63;;;;;;;20.42;38.31;102837.41;5072521;28;20454;-71
2021/04/25 04:02:41;;;;;;;38.80;19.75;;;;;;;20.53;37.89;102843.44;5071235;28;20044;-70
2021/04/25 04:05:08;;;;;;;31.98;17.35;;;;;;;20.45;38.03;102834.00;5071229;28;20028;-71
2021/04/25 04:07:34;;;;;;;28.98;17.83;;;;;;;20.26;38.21;102836.31;5054776;28;20031;-71
2021/04/25 04:09:59;;;;;;;36.05;19.25;;;;;;;19.94;38.91;102840.38;5058086;28;20016;-70
2021/04/25 04:12:25;;;;;;;34.25;17.65;;;;;;;20.16;38.43;102836.63;5059203;28;20032;-70
2021/04/25 04:14:51;;;;;;;35.97;17.88;;;;;;;20.24;38.29;102849.66;5072412;28;20020;-70
2021/04/25 04:17:19;;;;;;;34.47;18.15;;;;;;;20.41;37.71;102846.91;5072308;28;20033;-69
2021/04/25 04:19:45;;;;;;;34.20;17.23;;;;;;;20.42;37.74;102854.06;5072328;28;20058;-70
2021/04/25 04:22:11;;;;;;;35.20;18.42;;;;;;;20.53;37.44;102850.97;5072295;28;20052;-70
2021/04/25 04:24:36;;;;;;;34.17;18.13;;;;;;;20.58;37.15;102861.91;5072216;28;20029;-71
2021/04/25 04:27:02;;;;;;;35.85;19.55;;;;;;;20.73;36.71;102855.84;5073270;28;20580;-71
2021/04/25 04:29:29;;;;;;;34.30;17.75;;;;;;;20.70;36.87;102856.47;5076386;28;20063;-70
2021/04/25 04:31:55;;;;;;;29.75;17.75;;;;;;;20.66;36.75;102869.41;5075967;28;20098;-70
2021/04/25 04:34:20;;;;;;;29.70;18.30;;;;;;;20.61;36.84;102866.81;5076296;28;20025;-70
2021/04/25 04:36:46;;;;;;;28.85;17.75;;;;;;;20.50;36.95;102872.72;5076204;28;20501;-70
2021/04/25 04:39:12;;;;;;;31.38;18.88;;;;;;;20.61;36.68;102878.72;5076535;28;20035;-71
2021/04/25 04:41:38;;;;;;;36.72;19.00;;;;;;;20.25;37.16;102873.50;5076062;28;20463;-70
2021/04/25 04:44:04;;;;;;;34.50;18.27;;;;;;;20.05;37.63;102883.31;5075095;28;20078;-70
2021/04/25 04:46:29;;;;;;;38.33;17.08;;;;;;;20.30;37.09;102876.13;5074711;28;20509;-70
2021/04/25 04:48:55;;;;;;;38.55;19.02;;;;;;;19.87;37.68;102879.69;5075976;28;20032;-70
2021/04/25 04:51:21;;;;;;;33.50;18.58;;;;;;;19.67;38.08;102880.34;5059819;28;20024;-70
2021/04/25 04:53:46;;;;;;;35.13;19.35;;;;;;;20.06;37.23;102886.91;5059950;28;20289;-70
2021/04/25 04:56:12;;;;;;;27.55;17.85;;;;;;;20.20;37.06;102882.03;5058034;28;20138;-70
2021/04/25 04:58:37;;;;;;;38.35;19.15;;;;;;;20.32;37.04;102871.06;5058606;28;20024;-71
2021/04/25 05:01:03;;;;;;;24.35;15.35;;;;;;;20.18;36.78;102884.31;5057444;28;20502;-71
2021/04/25 05:03:28;;;;;;;27.92;14.95;;;;;;;19.98;37.23;102883.00;5058431;28;20024;-71
2021/04/25 05:05:54;;;;;;;33.92;15.85;;;;;;;19.89;37.21;102883.00;5059399;28;20074;-71
2021/04/25 05:08:19;;;;;;;32.38;16.85;;;;;;;20.00;37.28;102877.91;5057765;28;20486;-70
2021/04/25 05:10:45;;;;;;;33.25;15.93;;;;;;;20.04;37.21;102875.31;5058896;28;20552;-71
2021/04/25 05:13:10;;;;;;;27.75;15.98;;;;;;;19.91;37.43;102879.88;5058324;28;20050;-70
2021/04/25 05:15:37;;;;;;;30.10;16.42;;;;;;;19.73;37.78;102873.50;5056470;28;20442;-70
2021/04/25 05:18:03;;;;;;;25.25;15.20;;;;;;;19.88;37.34;102877.78;5061824;28;20032;-70
2021/04/25 05:20:29;;;;;;;29.77;17.63;;;;;;;20.00;37.06;102868.78;5075285;28;20093;-70
2021/04/25 05:22:58;;;;;;;29.02;15.30;;;;;;;19.99;37.14;102879.06;5075358;28;20140;-70
2021/04/25 05:25:24;;;;;;;33.53;19.08;;;;;;;19.79;37.36;102877.72;5075287;28;20028;-70
2021/04/25 05:27:50;;;;;;;23.90;15.88;;;;;;;19.76;37.42;102883.94;5075270;28;20086;-70
2021/04/25 05:30:15;;;;;;;34.38;18.15;;;;;;;19.77;37.45;102885.56;5074979;28;20040;-70
2021/04/25 05:32:41;;;;;;;30.73;17.67;;;;;;;19.75;37.61;102882.31;5075355;28;20513;-70
2021/04/25 05:35:07;;;;;;;31.92;18.60;;;;;;;19.77;37.57;102884.75;5073933;28;20483;-70
2021/04/25 05:37:33;;;;;;;33.20;18.70;;;;;;;19.63;38.10;102888.47;5074899;28;20070;-70
2021/04/25 05:39:59;;;;;;;34.80;21.05;;;;;;;19.66;37.92;102892.56;5075061;28;20447;-70
2021/04/25 05:42:24;;;;;;;37.65;20.63;;;;;;;19.89;37.87;102894.09;5075272;28;20024;-69
2021/04/25 05:44:54;;;;;;;26.02;18.58;;;;;;;19.82;37.66;102902.06;5074915;28;20391;-70
2021/04/25 05:47:20;;;;;;;29.33;19.98;;;;;;;19.93;37.42;102899.78;5061921;28;20052;-70
2021/04/25 05:49:45;;;;;;;33.08;19.67;;;;;;;19.84;37.68;102897.00;5057893;28;20055;-71
2021/04/25 05:52:11;;;;;;;35.47;20.15;;;;;;;20.01;37.35;102895.38;5040602;28;20025;-70
2021/04/25 05:54:37;;;;;;;31.10;20.52;;;;;;;20.05;37.18;102897.19;5058104;28;20021;-71
2021/04/25 05:57:02;;;;;;;35.60;21.13;;;;;;;20.09;37.10;102914.00;5057159;28;20060;-71
2021/04/25 05:59:28;;;;;;;41.78;21.33;;;;;;;20.04;37.25;102911.41;5058404;28;20098;-70
2021/04/25 06:01:53;;;;;;;30.77;21.45;;;;;;;20.03;37.28;102920.88;5056464;28;20025;-71
2021/04/25 06:04:19;;;;;;;34.97;21.85;;;;;;;20.06;37.24;102931.31;5057425;28;20047;-71
2021/04/25 06:06:45;;;;;;;40.55;20.92;;;;;;;19.77;38.04;102929.13;5056771;28;20056;-72
2021/04/25 06:09:11;;;;;;;39.03;22.83;;;;;;;19.83;38.56;102938.94;5056520;28;20105;-72
2021/04/25 06:11:37;;;;;;;36.10;20.88;;;;;;;19.91;38.39;102938.13;5057026;28;20107;-71
2021/04/25 06:14:05;;;;;;;37.03;23.25;;;;;;;19.92;38.37;102929.50;5057647;28;20382;-70
2021/04/25 06:16:31;;;;;;;38.70;20.20;;;;;;;19.78;38.72;102933.53;5056189;28;20029;-71
2021/04/25 06:18:56;;;;;;;31.35;18.08;;;;;;;19.89;38.54;102938.47;5057101;28;20077;-71
2021/04/25 06:21:22;;;;;;;24.85;16.20;;;;;;;19.74;39.00;102946.44;5056645;28;20075;-72
2021/04/25 06:23:47;;;;;;;35.42;17.23;;;;;;;20.05;38.32;102946.34;5057403;28;21480;-70
2021/04/25 06:26:13;;;;;;;29.55;17.90;;;;;;;20.16;38.16;102948.44;5057098;28;20146;-71
2021/04/25 06:28:38;;;;;;;31.65;18.08;;;;;;;20.10;38.43;102951.69;5057744;28;20040;-72
2021/04/25 06:31:04;;;;;;;36.65;20.55;;;;;;;19.93;38.66;102953.31;5057429;28;20123;-70
2021/04/25 06:33:30;;;;;;;34.55;20.60;;;;;;;20.21;37.78;102956.63;5056852;28;20060;-71
2021/04/25 06:35:55;;;;;;;29.63;19.73;;;;;;;20.36;37.49;102958.09;5057998;28;20437;-71
2021/04/25 06:38:21;;;;;;;31.23;16.85;;;;;;;20.23;37.70;102961.84;5057722;28;20028;-71
2021/04/25 06:40:46;;;;;;;30.05;17.42;;;;;;;20.06;38.12;102961.84;5058078;28;20028;-70
2021/04/25 06:43:12;;;;;;;28.90;19.13;;;;;;;20.36;37.31;102966.44;5054741;28;20393;-76
2021/04/25 06:45:38;;;;;;;34.83;20.08;;;;;;;20.09;37.76;102964.75;5053763;28;20025;-69
2021/04/25 06:48:04;;;;;;;27.55;19.35;;;;;;;20.44;36.92;102962.88;5054834;28;20696;-69
2021/04/25 06:50:29;;;;;;;36.30;18.33;;;;;;;19.93;38.05;102967.19;5056221;28;20024;-71
2021/04/25 06:52:55;;;;;;;28.60;17.90;;;;;;;19.99;37.83;102958.72;5055010;28;20051;-71
2021/04/25 06:55:23;;;;;;;27.75;17.20;;;;;;;19.99;37.95;102962.31;5055242;28;20040;-71
2021/04/25 06:57:49;;;;;;;29.98;18.10;;;;;;;20.52;37.24;102960.44;5054403;28;20164;-70
2021/04/25 07:00:17;;;;;;;31.58;18.25;;;;;;;20.66;36.70;102958.28;5055568;28;20058;-71
2021/04/25 07:02:43;;;;;;;34.17;20.08;;;;;;;20.72;36.61;102954.22;5055518;28;20021;-70
2021/04/25 07:05:09;;;;;;;25.92;16.52;;;;;;;20.55;36.68;102955.03;5055705;28;20021;-70
2021/04/25 07:07:35;;;;;;;25.58;16.52;;;;;;;20.73;36.45;102961.41;5054014;28;20051;-71
2021/04/25 07:10:02;;;;;;;21.65;12.93;;;;;;;20.66;36.37;102967.44;5055011;28;20801;-70
2021/04/25 07:12:28;;;;;;;32.00;14.80;;;;;;;20.70;36.34;102968.41;5055213;28;20382;-69
2021/04/25 07:14:56;;;;;;;26.02;12.57;;;;;;;20.84;35.86;102968.22;5056834;28;20099;-70
2021/04/25 07:17:22;;;;;;;21.27;10.07;;;;;;;20.82;35.66;102976.09;5068073;28;20074;-70
2021/04/25 07:19:47;;;;;;;21.52;10.40;;;;;;;21.06;35.23;102975.53;5054664;28;20032;-72
2021/04/25 07:22:13;;;;;;;21.70;11.30;;;;;;;21.25;35.16;102973.22;5054407;28;20039;-71
2021/04/25 07:24:38;;;;;;;20.13;8.88;;;;;;;21.04;35.43;102983.41;5055630;28;20036;-72
2021/04/25 07:27:04;;;;;;;17.45;9.10;;;;;;;21.18;35.36;102980.44;5056414;28;20028;-71
2021/04/25 07:29:30;;;;;;;17.95;9.60;;;;;;;21.36;34.81;102968.13;5057552;28;20028;-76
2021/04/25 07:31:57;;;;;;;18.08;9.07;;;;;;;21.44;34.63;102978.41;5070073;28;20048;-72
2021/04/25 07:34:24;;;;;;;28.60;9.52;;;;;;;21.43;34.76;102981.50;5059204;28;20741;-71
2021/04/25 07:36:49;;;;;;;15.57;8.68;;;;;;;21.34;34.98;102978.78;5055720;28;20025;-71
2021/04/25 07:39:19;;;;;;;18.73;9.45;;;;;;;21.54;34.38;102980.84;5055800;28;20089;-72
2021/04/25 07:41:44;;;;;;;14.52;8.23;;;;;;;21.15;34.88;102978.28;5054234;28;20025;-71
2021/04/25 07:44:10;;;;;;;24.85;9.43;;;;;;;21.24;34.41;102987.44;5054551;28;20356;-70
2021/04/25 07:46:36;;;;;;;24.48;10.55;;;;;;;21.30;34.45;102989.72;5055051;28;20129;-71
2021/04/25 07:49:01;;;;;;;19.23;9.70;;;;;;;21.28;34.54;102985.66;5054833;28;20099;-72
2021/04/25 07:51:27;;;;;;;18.05;10.02;;;;;;;20.97;35.15;102986.69;5054001;28;20430;-70
2021/04/25 07:53:54;;;;;;;16.08;10.38;;;;;;;21.43;34.48;102992.63;5055492;28;20028;-70
2021/04/25 07:56:20;;;;;;;21.52;11.50;;;;;;;21.58;34.28;102992.91;5053307;28;20028;-70
2021/04/25 07:58:45;;;;;;;22.73;11.02;;;;;;;21.45;34.43;102995.91;5054463;28;20027;-70
2021/04/25 08:01:11;;;;;;;23.25;11.10;;;;;;;21.53;34.62;102989.47;5054241;28;20044;-71
2021/04/25 08:03:37;;;;;;;23.83;10.70;;;;;;;21.80;34.11;102989.03;5054134;28;20032;-70
2021/04/25 08:06:05;;;;;;;20.33;10.38;;;;;;;21.76;34.01;102999.19;5055711;28;20028;-70
2021/04/25 08:08:30;;;;;;;24.63;11.70;;;;;;;21.86;34.04;102987.69;5053645;28;20114;-71
2021/04/25 08:10:56;;;;;;;28.30;9.70;;;;;;;21.89;34.18;102988.97;5054132;28;20029;-70
2021/04/25 08:13:21;;;;;;;19.38;10.98;;;;;;;22.00;34.16;102990.25;5054226;28;20459;-72
2021/04/25 08:15:47;;;;;;;36.83;13.30;;;;;;;21.71;34.84;102993.03;5055730;28;20074;-70
2021/04/25 08:18:12;;;;;;;22.95;10.85;;;;;;;21.85;34.82;102996.38;5054567;28;20580;-70
2021/04/25 08:20:38;;;;;;;18.95;10.80;;;;;;;21.92;34.29;102993.91;5055052;28;20543;-70
2021/04/25 08:23:03;;;;;;;19.55;10.75;;;;;;;21.72;34.35;102995.47;5055051;28;21072;-69
2021/04/25 08:25:29;;;;;;;21.90;12.43;;;;;;;21.19;35.62;102995.97;5054999;28;20025;-69
2021/04/25 08:27:55;;;;;;;22.13;11.75;;;;;;;21.37;35.52;102997.56;5054489;28;20029;-69
2021/04/25 08:30:22;;;;;;;16.40;10.80;;;;;;;21.06;35.66;102992.22;5054313;28;20117;-70
2021/04/25 08:32:47;;;;;;;22.70;11.35;;;;;;;21.49;34.97;102994.91;5054398;28;20459;-71
2021/04/25 08:35:13;;;;;;;22.95;11.25;;;;;;;21.03;35.12;102990.94;5054868;28;20144;-71
2021/04/25 08:37:38;;;;;;;23.98;9.95;;;;;;;21.24;34.82;102998.56;5055043;28;20031;-70
2021/04/25 08:40:06;;;;;;;20.88;11.27;;;;;;;21.32;34.73;102995.78;5056149;28;20055;-74
2021/04/25 08:42:32;;;;;;;15.52;10.07;;;;;;;21.22;34.74;102998.06;5055626;28;20020;-72
2021/04/25 08:44:59;;;;;;;18.75;11.18;;;;;;;21.11;34.50;103000.41;5054979;28;20033;-72
2021/04/25 08:47:28;;;;;;;23.38;11.50;;;;;;;21.29;34.63;102995.63;5054907;28;20060;-72
2021/04/25 08:50:01;;;;;;;21.45;11.40;;;;;;;21.25;34.94;102995.47;5061824;28;20522;-74
2021/04/25 08:52:27;;;;;;;16.75;10.80;;;;;;;21.32;34.47;102987.44;5068902;28;20024;-74
2021/04/25 08:54:53;;;;;;;15.10;11.27;;;;;;;21.18;34.58;102994.34;5068890;28;20025;-72
2021/04/25 08:57:19;;;;;;;19.15;10.35;;;;;;;21.50;34.32;102992.94;5068601;28;20028;-72
2021/04/25 08:59:44;;;;;;;20.13;11.68;;;;;;;21.62;33.81;102992.25;5065131;28;20021;-72
2021/04/25 09:02:10;;;;;;;18.23;10.55;;;;;;;21.60;34.02;102992.56;5054243;28;20593;-71
2021/04/25 09:04:36;;;;;;;23.48;12.55;;;;;;;21.45;34.29;102987.56;5061991;28;20036;-72
2021/04/25 09:07:09;;;;;;;18.20;11.50;;;;;;;21.19;34.72;102987.63;5071014;28;20028;-71
2021/04/25 09:09:47;;;;;;;19.27;10.90;;;;;;;21.28;33.83;102994.00;5071358;28;20029;-71
2021/04/25 09:12:30;;;;;;;20.42;12.02;;;;;;;21.66;33.37;102993.19;5072111;28;20048;-71
2021/04/25 09:14:55;;;;;;;22.00;12.30;;;;;;;21.82;33.20;102997.84;5074208;28;20029;-71
2021/04/25 09:17:21;;;;;;;21.42;11.30;;;;;;;21.83;32.98;102996.69;5075696;28;20025;-71
2021/04/25 09:20:02;;;;;;;21.25;12.30;;;;;;;21.50;33.85;103002.09;5075298;28;20458;-71
2021/04/25 09:22:50;;;;;;;26.88;13.38;;;;;;;21.84;33.92;103000.31;5075604;28;20025;-73
2021/04/25 09:25:18;;;;;;;23.48;11.70;;;;;;;22.00;33.55;103006.94;5075300;28;20398;-72
2021/04/25 09:27:46;;;;;;;23.50;11.38;;;;;;;22.37;32.83;103008.03;5075167;28;20082;-72
2021/04/25 09:30:19;;;;;;;27.55;11.30;;;;;;;22.56;32.49;103012.31;5074960;28;20079;-71
2021/04/25 09:32:44;;;;;;;15.48;10.43;;;;;;;22.70;32.13;103016.44;5075057;28;20036;-71
2021/04/25 09:35:19;;;;;;;19.15;10.82;;;;;;;22.11;32.61;103016.56;5075153;28;20431;-72
2021/04/25 09:37:48;;;;;;;26.73;12.85;;;;;;;22.31;32.28;103009.38;5075076;28;20427;-71
2021/04/25 09:40:17;;;;;;;24.92;11.77;;;;;;;22.46;32.45;103015.50;5075039;28;20029;-72
2021/04/25 09:43:00;;;;;;;18.15;11.07;;;;;;;21.85;32.97;103010.31;5075213;28;20382;-72
2021/04/25 09:45:28;;;;;;;21.52;11.63;;;;;;;22.66;31.70;103011.88;5075170;28;20360;-71
2021/04/25 09:47:54;;;;;;;20.05;11.95;;;;;;;22.75;31.78;103012.66;5074772;28;20028;-73
2021/04/25 09:50:22;;;;;;;24.85;11.45;;;;;;;22.77;31.47;103013.09;5074805;28;20104;-72
2021/04/25 09:52:51;;;;;;;20.00;10.60;;;;;;;22.63;31.43;103012.56;5074678;28;20467;-72
2021/04/25 09:55:19;;;;;;;18.43;11.30;;;;;;;22.42;31.78;103015.34;5074842;28;20028;-73
2021/04/25 09:57:46;;;;;;;18.42;11.10;;;;;;;22.82;31.05;103014.84;5074689;28;20029;-73
2021/04/25 10:00:13;;;;;;;22.73;12.02;;;;;;;22.86;31.13;103007.47;5074645;28;20090;-72
2021/04/25 10:03:11;;;;;;;17.95;10.32;;;;;;;22.82;31.16;103004.56;5074897;28;20028;-72
2021/04/25 10:05:38;;;;;;;16.08;10.93;;;;;;;22.95;31.34;103002.63;5074616;28;20479;-72
2021/04/25 10:08:04;;;;;;;21.27;11.60;;;;;;;22.98;31.29;102999.19;5074460;28;20028;-71
2021/04/25 10:10:31;;;;;;;18.80;11.55;;;;;;;23.10;31.04;102995.59;5069432;28;20039;-72
2021/04/25 10:12:57;;;;;;;18.33;10.90;;;;;;;22.68;31.21;103007.63;5056585;28;20041;-73
2021/04/25 10:15:24;;;;;;;19.15;11.25;;;;;;;22.65;31.13;103007.47;5057422;28;20063;-73
2021/04/25 10:17:54;;;;;;;22.00;11.38;;;;;;;22.77;31.06;103009.50;5057818;28;20028;-72
2021/04/25 10:20:20;;;;;;;16.98;10.45;;;;;;;22.77;30.95;103010.31;5056727;28;20024;-72
2021/04/25 10:22:48;;;;;;;14.88;10.10;;;;;;;23.03;30.82;103012.06;5058425;28;20827;-72
2021/04/25 10:25:20;;;;;;;22.98;11.13;;;;;;;22.76;31.06;103005.09;5060745;28;20668;-72
2021/04/25 10:27:55;;;;;;;20.92;11.45;;;;;;;22.94;30.96;103014.94;5058154;28;20036;-72
2021/04/25 10:30:22;;;;;;;18.35;10.02;;;;;;;23.44;30.33;103013.94;5056299;28;20052;-72
2021/04/25 10:32:54;;;;;;;15.70;10.25;;;;;;;22.84;30.89;103012.56;5055909;28;20111;-72
2021/04/25 10:35:22;;;;;;;20.02;10.73;;;;;;;22.93;30.94;103007.75;5057138;28;20506;-72
2021/04/25 10:37:49;;;;;;;16.73;10.73;;;;;;;23.53;30.31;103009.03;5056963;28;20029;-72
2021/04/25 10:40:21;;;;;;;19.85;9.65;;;;;;;23.26;30.33;103002.94;5074186;28;20480;-73
2021/04/25 10:43:08;;;;;;;18.85;10.57;;;;;;;23.34;30.96;103006.78;5066142;28;20028;-72
2021/04/25 10:45:56;;;;;;;15.27;10.35;;;;;;;23.48;30.11;103000.91;5056505;28;20054;-72
2021/04/25 10:48:29;;;;;;;20.63;9.93;;;;;;;23.44;30.37;102997.19;5057915;28;20028;-72
2021/04/25 10:51:02;;;;;;;16.92;9.90;;;;;;;22.96;30.44;102996.72;5055972;28;20025;-73
2021/04/25 10:53:31;;;;;;;22.35;10.95;;;;;;;22.48;31.14;103000.09;5054305;28;20060;-72
2021/04/25 10:56:15;;;;;;;13.40;8.82;;;;;;;22.37;31.15;102993.31;5055264;28;20028;-74
2021/04/25 10:58:46;;;;;;;22.95;11.30;;;;;;;22.37;31.34;102996.09;5060422;28;20032;-70
2021/04/25 11:01:40;;;;;;;18.13;9.88;;;;;;;22.39;30.88;102996.56;5055936;28;20040;-71
2021/04/25 11:04:06;;;;;;;21.15;8.85;;;;;;;22.24;31.59;102986.84;5054665;28;20025;-71
2021/04/25 11:06:32;;;;;;;16.70;8.43;;;;;;;22.25;31.49;102996.81;5067905;28;20028;-70
2021/04/25 11:08:57;;;;;;;15.32;8.43;;;;;;;22.50;31.06;102988.59;5073240;28;20360;-69
2021/04/25 11:11:31;;;;;;;14.85;9.23;;;;;;;22.67;31.12;102992.06;5073100;28;20024;-71